sensor_id;sensor_type;location;lat;lon;timestamp;temperature;humidity
5834;DHT22;2943;48.012;10.968;2023-04-15T00:00:40;5.30;99.90
5834;DHT22;2943;48.012;10.968;2023-04-15T00:03:07;5.30;99.90
5834;DHT22;2943;48.012;10.968;2023-04-15T00:05:34;5.30;99.90
5834;DHT22;2943;48.012;10.968;2023-04-15T00:08:02;5.30;99.90
5834;DHT22;2943;48.012;10.968;2023-04-15T00:10:29;5.30;99.90
5834;DHT22;2943;48.012;10.968;2023-04-15T00:12:55;5.30;99.90
5834;DHT22;2943;48.012;10.968;2023-04-15T00:15:22;5.20;99.90
5834;DHT22;2943;48.012;10.968;2023-04-15T00:17:51;5.20;99.90
5834;DHT22;2943;48.012;10.968;2023-04-15T00:20:18;5.20;99.90
5834;DHT22;2943;48.012;10.968;2023-04-15T00:22:44;5.20;99.90
5834;DHT22;2943;48.012;10.968;2023-04-15T00:25:12;5.10;99.90
5834;DHT22;2943;48.012;10.968;2023-04-15T00:27:41;5.10;99.90
5834;DHT22;2943;48.012;10.968;2023-04-15T00:30:08;5.10;99.90
5834;DHT22;2943;48.012;10.968;2023-04-15T00:32:36;5.10;99.90
5834;DHT22;2943;48.012;10.968;2023-04-15T00:35:05;5.10;99.90
5834;DHT22;2943;48.012;10.968;2023-04-15T00:37:32;5.00;99.90
5834;DHT22;2943;48.012;10.968;2023-04-15T00:39:59;5.10;99.90
5834;DHT22;2943;48.012;10.968;2023-04-15T00:42:27;5.00;99.90
5834;DHT22;2943;48.012;10.968;2023-04-15T00:44:54;5.00;99.90
5834;DHT22;2943;48.012;10.968;2023-04-15T00:47:21;5.00;99.90
5834;DHT22;2943;48.012;10.968;2023-04-15T00:49:49;5.10;99.90
5834;DHT22;2943;48.012;10.968;2023-04-15T00:52:18;5.00;99.90
5834;DHT22;2943;48.012;10.968;2023-04-15T00:54:44;4.90;99.90
5834;DHT22;2943;48.012;10.968;2023-04-15T00:57:11;4.90;99.90
5834;DHT22;2943;48.012;10.968;2023-04-15T00:59:38;4.90;99.90
5834;DHT22;2943;48.012;10.968;2023-04-15T01:02:05;4.90;99.90
5834;DHT22;2943;48.012;10.968;2023-04-15T01:04:32;4.90;99.90
5834;DHT22;2943;48.012;10.968;2023-04-15T01:07:00;4.90;99.90
5834;DHT22;2943;48.012;10.968;2023-04-15T01:09:28;4.90;99.90
5834;DHT22;2943;48.012;10.968;2023-04-15T01:11:55;4.90;99.90
5834;DHT22;2943;48.012;10.968;2023-04-15T01:14:23;4.90;99.90
5834;DHT22;2943;48.012;10.968;2023-04-15T01:16:51;4.90;99.90
5834;DHT22;2943;48.012;10.968;2023-04-15T01:19:19;4.90;99.90
5834;DHT22;2943;48.012;10.968;2023-04-15T01:21:46;4.90;99.90
5834;DHT22;2943;48.012;10.968;2023-04-15T01:24:14;4.90;99.90
5834;DHT22;2943;48.012;10.968;2023-04-15T01:26:45;4.80;99.90
5834;DHT22;2943;48.012;10.968;2023-04-15T01:29:13;4.80;99.90
5834;DHT22;2943;48.012;10.968;2023-04-15T01:31:40;4.80;99.90
5834;DHT22;2943;48.012;10.968;2023-04-15T01:34:08;4.80;99.90
5834;DHT22;2943;48.012;10.968;2023-04-15T01:36:35;4.80;99.90
5834;DHT22;2943;48.012;10.968;2023-04-15T01:39:02;4.80;99.90
5834;DHT22;2943;48.012;10.968;2023-04-15T01:41:30;4.80;99.90
5834;DHT22;2943;48.012;10.968;2023-04-15T01:43:58;4.80;99.90
5834;DHT22;2943;48.012;10.968;2023-04-15T01:46:25;4.80;99.90
5834;DHT22;2943;48.012;10.968;2023-04-15T01:48:52;4.70;99.90
5834;DHT22;2943;48.012;10.968;2023-04-15T01:51:19;4.70;99.90
5834;DHT22;2943;48.012;10.968;2023-04-15T01:53:46;4.70;99.90
5834;DHT22;2943;48.012;10.968;2023-04-15T01:56:13;4.70;99.90
5834;DHT22;2943;48.012;10.968;2023-04-15T01:58:40;4.70;99.90
5834;DHT22;2943;48.012;10.968;2023-04-15T02:01:08;4.70;99.90
5834;DHT22;2943;48.012;10.968;2023-04-15T02:03:36;4.70;99.90
5834;DHT22;2943;48.012;10.968;2023-04-15T02:06:04;4.70;99.90
5834;DHT22;2943;48.012;10.968;2023-04-15T02:08:30;4.70;99.90
5834;DHT22;2943;48.012;10.968;2023-04-15T02:10:57;4.70;99.90
5834;DHT22;2943;48.012;10.968;2023-04-15T02:13:25;4.60;99.90
5834;DHT22;2943;48.012;10.968;2023-04-15T02:15:53;4.70;99.90
5834;DHT22;2943;48.012;10.968;2023-04-15T02:18:22;4.70;99.90
5834;DHT22;2943;48.012;10.968;2023-04-15T02:20:50;4.70;99.90
5834;DHT22;2943;48.012;10.968;2023-04-15T02:23:17;4.70;99.90
5834;DHT22;2943;48.012;10.968;2023-04-15T02:25:44;4.70;99.90
5834;DHT22;2943;48.012;10.968;2023-04-15T02:28:11;4.70;99.90
5834;DHT22;2943;48.012;10.968;2023-04-15T02:30:38;4.70;99.90
5834;DHT22;2943;48.012;10.968;2023-04-15T02:33:05;4.70;99.90
5834;DHT22;2943;48.012;10.968;2023-04-15T02:35:34;4.70;99.90
5834;DHT22;2943;48.012;10.968;2023-04-15T02:38:03;4.70;99.90
5834;DHT22;2943;48.012;10.968;2023-04-15T02:40:30;4.70;99.90
5834;DHT22;2943;48.012;10.968;2023-04-15T02:42:57;4.60;99.90
5834;DHT22;2943;48.012;10.968;2023-04-15T02:45:25;4.60;99.90
5834;DHT22;2943;48.012;10.968;2023-04-15T02:47:52;4.50;99.90
5834;DHT22;2943;48.012;10.968;2023-04-15T02:50:19;4.50;99.90
5834;DHT22;2943;48.012;10.968;2023-04-15T02:52:49;4.50;99.90
5834;DHT22;2943;48.012;10.968;2023-04-15T02:55:16;4.50;99.90
5834;DHT22;2943;48.012;10.968;2023-04-15T02:57:43;4.40;99.90
5834;DHT22;2943;48.012;10.968;2023-04-15T03:00:11;4.40;99.90
5834;DHT22;2943;48.012;10.968;2023-04-15T03:02:39;4.40;99.90
5834;DHT22;2943;48.012;10.968;2023-04-15T03:05:11;4.40;99.90
5834;DHT22;2943;48.012;10.968;2023-04-15T03:07:38;4.40;99.90
5834;DHT22;2943;48.012;10.968;2023-04-15T03:10:08;4.40;99.90
5834;DHT22;2943;48.012;10.968;2023-04-15T03:12:34;4.40;99.90
5834;DHT22;2943;48.012;10.968;2023-04-15T03:15:01;4.40;99.90
5834;DHT22;2943;48.012;10.968;2023-04-15T03:17:28;4.30;99.90
5834;DHT22;2943;48.012;10.968;2023-04-15T03:19:55;4.30;99.90
5834;DHT22;2943;48.012;10.968;2023-04-15T03:22:22;4.40;99.90
5834;DHT22;2943;48.012;10.968;2023-04-15T03:24:49;4.30;99.90
5834;DHT22;2943;48.012;10.968;2023-04-15T03:27:17;4.30;99.90
5834;DHT22;2943;48.012;10.968;2023-04-15T03:29:44;4.30;99.90
5834;DHT22;2943;48.012;10.968;2023-04-15T03:32:11;4.20;99.90
5834;DHT22;2943;48.012;10.968;2023-04-15T03:34:39;4.20;99.90
5834;DHT22;2943;48.012;10.968;2023-04-15T03:37:07;4.20;99.90
5834;DHT22;2943;48.012;10.968;2023-04-15T03:39:34;4.20;99.90
5834;DHT22;2943;48.012;10.968;2023-04-15T03:42:01;4.10;99.90
5834;DHT22;2943;48.012;10.968;2023-04-15T03:44:29;4.10;99.90
5834;DHT22;2943;48.012;10.968;2023-04-15T03:46:57;4.00;99.90
5834;DHT22;2943;48.012;10.968;2023-04-15T03:49:24;4.00;99.90
5834;DHT22;2943;48.012;10.968;2023-04-15T03:51:50;4.00;99.90
5834;DHT22;2943;48.012;10.968;2023-04-15T03:54:17;4.00;99.90
5834;DHT22;2943;48.012;10.968;2023-04-15T03:56:44;3.90;99.90
5834;DHT22;2943;48.012;10.968;2023-04-15T03:59:11;3.90;99.90
5834;DHT22;2943;48.012;10.968;2023-04-15T04:01:39;3.90;99.90
5834;DHT22;2943;48.012;10.968;2023-04-15T04:04:06;3.80;99.90
5834;DHT22;2943;48.012;10.968;2023-04-15T04:06:33;3.80;99.90
5834;DHT22;2943;48.012;10.968;2023-04-15T04:09:00;3.80;99.90
5834;DHT22;2943;48.012;10.968;2023-04-15T04:11:27;3.80;99.90
5834;DHT22;2943;48.012;10.968;2023-04-15T04:13:54;3.80;99.90
5834;DHT22;2943;48.012;10.968;2023-04-15T04:16:21;3.90;99.90
5834;DHT22;2943;48.012;10.968;2023-04-15T04:18:49;3.90;99.90
5834;DHT22;2943;48.012;10.968;2023-04-15T04:21:16;3.90;99.90
5834;DHT22;2943;48.012;10.968;2023-04-15T04:23:43;3.90;99.90
5834;DHT22;2943;48.012;10.968;2023-04-15T04:26:10;3.90;99.90
5834;DHT22;2943;48.012;10.968;2023-04-15T04:28:37;3.90;99.90
5834;DHT22;2943;48.012;10.968;2023-04-15T04:31:05;3.90;99.90
5834;DHT22;2943;48.012;10.968;2023-04-15T04:33:32;3.90;99.90
5834;DHT22;2943;48.012;10.968;2023-04-15T04:36:00;3.90;99.90
5834;DHT22;2943;48.012;10.968;2023-04-15T04:38:27;3.90;99.90
5834;DHT22;2943;48.012;10.968;2023-04-15T04:40:54;4.00;99.90
5834;DHT22;2943;48.012;10.968;2023-04-15T04:43:21;3.90;99.90
5834;DHT22;2943;48.012;10.968;2023-04-15T04:45:48;3.90;99.90
5834;DHT22;2943;48.012;10.968;2023-04-15T04:48:15;3.90;99.90
5834;DHT22;2943;48.012;10.968;2023-04-15T04:50:42;3.90;99.90
5834;DHT22;2943;48.012;10.968;2023-04-15T04:53:13;3.90;99.90
5834;DHT22;2943;48.012;10.968;2023-04-15T04:55:40;3.90;99.90
5834;DHT22;2943;48.012;10.968;2023-04-15T04:58:07;3.90;99.90
5834;DHT22;2943;48.012;10.968;2023-04-15T05:00:34;3.90;99.90
5834;DHT22;2943;48.012;10.968;2023-04-15T05:03:02;3.90;99.90
5834;DHT22;2943;48.012;10.968;2023-04-15T05:05:29;3.90;99.90
5834;DHT22;2943;48.012;10.968;2023-04-15T05:07:56;3.90;99.90
5834;DHT22;2943;48.012;10.968;2023-04-15T05:10:24;3.90;99.90
5834;DHT22;2943;48.012;10.968;2023-04-15T05:12:51;3.90;99.90
5834;DHT22;2943;48.012;10.968;2023-04-15T05:15:18;3.90;99.90
5834;DHT22;2943;48.012;10.968;2023-04-15T05:17:45;3.80;99.90
5834;DHT22;2943;48.012;10.968;2023-04-15T05:20:12;3.80;99.90
5834;DHT22;2943;48.012;10.968;2023-04-15T05:22:40;3.80;99.90
5834;DHT22;2943;48.012;10.968;2023-04-15T05:25:07;3.80;99.90
5834;DHT22;2943;48.012;10.968;2023-04-15T05:27:35;3.80;99.90
5834;DHT22;2943;48.012;10.968;2023-04-15T05:30:03;3.80;99.90
5834;DHT22;2943;48.012;10.968;2023-04-15T05:32:30;3.80;99.90
5834;DHT22;2943;48.012;10.968;2023-04-15T05:34:57;3.80;99.90
5834;DHT22;2943;48.012;10.968;2023-04-15T05:37:24;3.80;99.90
5834;DHT22;2943;48.012;10.968;2023-04-15T05:39:50;3.90;99.90
5834;DHT22;2943;48.012;10.968;2023-04-15T05:42:17;3.90;99.90
5834;DHT22;2943;48.012;10.968;2023-04-15T05:44:45;3.90;99.90
5834;DHT22;2943;48.012;10.968;2023-04-15T05:47:12;3.90;99.90
5834;DHT22;2943;48.012;10.968;2023-04-15T05:49:39;3.90;99.90
5834;DHT22;2943;48.012;10.968;2023-04-15T05:52:06;3.90;99.90
5834;DHT22;2943;48.012;10.968;2023-04-15T05:54:33;3.90;99.90
5834;DHT22;2943;48.012;10.968;2023-04-15T05:57:01;3.80;99.90
5834;DHT22;2943;48.012;10.968;2023-04-15T05:59:28;3.90;99.90
5834;DHT22;2943;48.012;10.968;2023-04-15T06:01:56;3.90;99.90
5834;DHT22;2943;48.012;10.968;2023-04-15T06:04:23;3.90;99.90
5834;DHT22;2943;48.012;10.968;2023-04-15T06:06:50;4.00;99.90
5834;DHT22;2943;48.012;10.968;2023-04-15T06:09:17;4.10;99.90
5834;DHT22;2943;48.012;10.968;2023-04-15T06:11:44;4.20;99.90
5834;DHT22;2943;48.012;10.968;2023-04-15T06:14:10;4.20;99.90
5834;DHT22;2943;48.012;10.968;2023-04-15T06:16:37;4.20;99.90
5834;DHT22;2943;48.012;10.968;2023-04-15T06:19:06;4.30;99.90
5834;DHT22;2943;48.012;10.968;2023-04-15T06:21:33;4.30;99.90
5834;DHT22;2943;48.012;10.968;2023-04-15T06:24:00;4.30;99.90
5834;DHT22;2943;48.012;10.968;2023-04-15T06:26:28;4.40;99.90
5834;DHT22;2943;48.012;10.968;2023-04-15T06:28:55;4.40;99.90
5834;DHT22;2943;48.012;10.968;2023-04-15T06:31:22;4.40;99.90
5834;DHT22;2943;48.012;10.968;2023-04-15T06:33:49;4.50;99.90
5834;DHT22;2943;48.012;10.968;2023-04-15T06:36:17;4.50;99.90
5834;DHT22;2943;48.012;10.968;2023-04-15T06:38:44;4.60;99.90
5834;DHT22;2943;48.012;10.968;2023-04-15T06:41:11;4.60;99.90
5834;DHT22;2943;48.012;10.968;2023-04-15T06:43:38;4.60;99.90
5834;DHT22;2943;48.012;10.968;2023-04-15T06:46:05;4.70;99.90
5834;DHT22;2943;48.012;10.968;2023-04-15T06:48:35;4.70;99.90
5834;DHT22;2943;48.012;10.968;2023-04-15T06:51:02;4.80;99.90
5834;DHT22;2943;48.012;10.968;2023-04-15T06:53:30;4.80;99.90
5834;DHT22;2943;48.012;10.968;2023-04-15T06:55:57;4.90;99.90
5834;DHT22;2943;48.012;10.968;2023-04-15T06:58:24;5.00;99.90
5834;DHT22;2943;48.012;10.968;2023-04-15T07:00:51;5.10;99.90
5834;DHT22;2943;48.012;10.968;2023-04-15T07:03:18;5.10;99.90
5834;DHT22;2943;48.012;10.968;2023-04-15T07:05:45;5.20;99.90
5834;DHT22;2943;48.012;10.968;2023-04-15T07:08:12;5.30;99.90
5834;DHT22;2943;48.012;10.968;2023-04-15T07:10:40;5.40;99.90
5834;DHT22;2943;48.012;10.968;2023-04-15T07:13:07;5.50;99.90
5834;DHT22;2943;48.012;10.968;2023-04-15T07:15:34;5.50;99.90
5834;DHT22;2943;48.012;10.968;2023-04-15T07:18:03;5.60;99.90
5834;DHT22;2943;48.012;10.968;2023-04-15T07:20:30;5.70;99.90
5834;DHT22;2943;48.012;10.968;2023-04-15T07:22:56;5.70;99.90
5834;DHT22;2943;48.012;10.968;2023-04-15T07:25:23;5.80;99.90
5834;DHT22;2943;48.012;10.968;2023-04-15T07:27:52;5.90;99.90
5834;DHT22;2943;48.012;10.968;2023-04-15T07:30:19;6.00;99.90
5834;DHT22;2943;48.012;10.968;2023-04-15T07:32:46;6.00;99.90
5834;DHT22;2943;48.012;10.968;2023-04-15T07:35:12;6.10;99.90
5834;DHT22;2943;48.012;10.968;2023-04-15T07:37:39;6.10;99.90
5834;DHT22;2943;48.012;10.968;2023-04-15T07:40:08;6.20;99.90
5834;DHT22;2943;48.012;10.968;2023-04-15T07:42:36;6.40;99.90
5834;DHT22;2943;48.012;10.968;2023-04-15T07:45:13;6.40;99.90
5834;DHT22;2943;48.012;10.968;2023-04-15T07:47:40;6.60;99.90
5834;DHT22;2943;48.012;10.968;2023-04-15T07:50:08;6.60;99.90
5834;DHT22;2943;48.012;10.968;2023-04-15T07:52:36;6.70;99.90
5834;DHT22;2943;48.012;10.968;2023-04-15T07:55:04;6.80;99.90
5834;DHT22;2943;48.012;10.968;2023-04-15T07:57:31;6.80;99.90
5834;DHT22;2943;48.012;10.968;2023-04-15T07:59:59;6.90;99.90
5834;DHT22;2943;48.012;10.968;2023-04-15T08:02:27;7.00;99.90
5834;DHT22;2943;48.012;10.968;2023-04-15T08:04:54;7.00;99.90
5834;DHT22;2943;48.012;10.968;2023-04-15T08:07:22;7.00;99.90
5834;DHT22;2943;48.012;10.968;2023-04-15T08:09:48;7.10;99.90
5834;DHT22;2943;48.012;10.968;2023-04-15T08:12:15;7.10;99.90
5834;DHT22;2943;48.012;10.968;2023-04-15T08:14:42;7.20;99.90
5834;DHT22;2943;48.012;10.968;2023-04-15T08:17:09;7.30;99.90
5834;DHT22;2943;48.012;10.968;2023-04-15T08:19:38;7.30;99.90
5834;DHT22;2943;48.012;10.968;2023-04-15T08:22:05;7.40;99.90
5834;DHT22;2943;48.012;10.968;2023-04-15T08:24:33;7.50;99.90
5834;DHT22;2943;48.012;10.968;2023-04-15T08:26:59;7.50;99.90
5834;DHT22;2943;48.012;10.968;2023-04-15T08:29:29;7.60;99.90
5834;DHT22;2943;48.012;10.968;2023-04-15T08:31:55;7.60;99.90
5834;DHT22;2943;48.012;10.968;2023-04-15T08:34:22;7.70;99.90
5834;DHT22;2943;48.012;10.968;2023-04-15T08:36:51;7.70;99.90
5834;DHT22;2943;48.012;10.968;2023-04-15T08:39:18;7.80;99.90
5834;DHT22;2943;48.012;10.968;2023-04-15T08:41:51;7.80;99.90
5834;DHT22;2943;48.012;10.968;2023-04-15T08:44:18;7.90;99.90
5834;DHT22;2943;48.012;10.968;2023-04-15T08:46:47;7.90;99.90
5834;DHT22;2943;48.012;10.968;2023-04-15T08:49:14;8.10;99.90
5834;DHT22;2943;48.012;10.968;2023-04-15T08:51:43;8.10;99.90
5834;DHT22;2943;48.012;10.968;2023-04-15T08:54:20;8.10;99.90
5834;DHT22;2943;48.012;10.968;2023-04-15T08:56:47;8.20;99.90
5834;DHT22;2943;48.012;10.968;2023-04-15T08:59:14;8.20;99.90
5834;DHT22;2943;48.012;10.968;2023-04-15T09:01:42;8.20;99.90
5834;DHT22;2943;48.012;10.968;2023-04-15T09:04:10;8.30;99.90
5834;DHT22;2943;48.012;10.968;2023-04-15T09:06:39;8.40;99.90
5834;DHT22;2943;48.012;10.968;2023-04-15T09:09:05;8.40;99.90
5834;DHT22;2943;48.012;10.968;2023-04-15T09:11:34;8.40;99.90
5834;DHT22;2943;48.012;10.968;2023-04-15T09:14:01;8.50;99.90
5834;DHT22;2943;48.012;10.968;2023-04-15T09:16:28;8.50;99.90
5834;DHT22;2943;48.012;10.968;2023-04-15T09:18:56;8.50;99.90
5834;DHT22;2943;48.012;10.968;2023-04-15T09:21:23;8.60;99.90
5834;DHT22;2943;48.012;10.968;2023-04-15T09:23:54;8.60;99.90
5834;DHT22;2943;48.012;10.968;2023-04-15T09:26:30;8.60;99.90
5834;DHT22;2943;48.012;10.968;2023-04-15T09:29:06;8.70;99.90
5834;DHT22;2943;48.012;10.968;2023-04-15T09:31:34;8.80;99.90
5834;DHT22;2943;48.012;10.968;2023-04-15T09:34:01;8.80;99.90
5834;DHT22;2943;48.012;10.968;2023-04-15T09:36:28;8.80;99.90
5834;DHT22;2943;48.012;10.968;2023-04-15T09:38:57;8.80;99.90
5834;DHT22;2943;48.012;10.968;2023-04-15T09:41:24;8.90;99.90
5834;DHT22;2943;48.012;10.968;2023-04-15T09:43:51;8.90;99.90
5834;DHT22;2943;48.012;10.968;2023-04-15T09:46:20;8.90;99.90
5834;DHT22;2943;48.012;10.968;2023-04-15T09:49:08;9.00;99.90
5834;DHT22;2943;48.012;10.968;2023-04-15T09:51:36;9.00;99.90
5834;DHT22;2943;48.012;10.968;2023-04-15T09:54:03;9.10;99.90
5834;DHT22;2943;48.012;10.968;2023-04-15T09:56:33;9.10;99.90
5834;DHT22;2943;48.012;10.968;2023-04-15T09:59:02;9.20;99.90
5834;DHT22;2943;48.012;10.968;2023-04-15T10:01:30;9.10;99.90
5834;DHT22;2943;48.012;10.968;2023-04-15T10:03:57;9.10;99.90
5834;DHT22;2943;48.012;10.968;2023-04-15T10:06:26;9.10;99.90
5834;DHT22;2943;48.012;10.968;2023-04-15T10:08:53;9.10;99.90
5834;DHT22;2943;48.012;10.968;2023-04-15T10:11:21;9.10;99.90
5834;DHT22;2943;48.012;10.968;2023-04-15T10:13:49;9.10;99.90
5834;DHT22;2943;48.012;10.968;2023-04-15T10:16:19;9.10;99.90
5834;DHT22;2943;48.012;10.968;2023-04-15T10:18:53;9.10;99.90
5834;DHT22;2943;48.012;10.968;2023-04-15T10:21:20;9.10;99.90
5834;DHT22;2943;48.012;10.968;2023-04-15T10:23:48;9.10;99.90
5834;DHT22;2943;48.012;10.968;2023-04-15T10:26:16;9.20;99.90
5834;DHT22;2943;48.012;10.968;2023-04-15T10:28:43;9.30;99.90
5834;DHT22;2943;48.012;10.968;2023-04-15T10:31:15;9.20;99.90
5834;DHT22;2943;48.012;10.968;2023-04-15T10:33:47;9.10;99.90
5834;DHT22;2943;48.012;10.968;2023-04-15T10:36:15;9.20;99.90
5834;DHT22;2943;48.012;10.968;2023-04-15T10:38:42;9.30;99.90
5834;DHT22;2943;48.012;10.968;2023-04-15T10:41:14;9.30;99.90
5834;DHT22;2943;48.012;10.968;2023-04-15T10:43:46;9.30;99.90
5834;DHT22;2943;48.012;10.968;2023-04-15T10:46:17;9.40;99.90
5834;DHT22;2943;48.012;10.968;2023-04-15T10:48:48;9.50;99.90
5834;DHT22;2943;48.012;10.968;2023-04-15T10:51:16;9.50;99.90
5834;DHT22;2943;48.012;10.968;2023-04-15T10:53:43;9.60;99.90
5834;DHT22;2943;48.012;10.968;2023-04-15T10:56:10;9.70;99.90
5834;DHT22;2943;48.012;10.968;2023-04-15T10:58:46;9.70;99.90
5834;DHT22;2943;48.012;10.968;2023-04-15T11:01:20;9.80;99.90
5834;DHT22;2943;48.012;10.968;2023-04-15T11:03:49;9.80;99.90
5834;DHT22;2943;48.012;10.968;2023-04-15T11:06:16;9.80;99.90
5834;DHT22;2943;48.012;10.968;2023-04-15T11:08:54;9.80;99.90
5834;DHT22;2943;48.012;10.968;2023-04-15T11:11:21;9.80;99.90
5834;DHT22;2943;48.012;10.968;2023-04-15T11:13:49;9.80;99.90
5834;DHT22;2943;48.012;10.968;2023-04-15T11:16:17;9.80;99.90
5834;DHT22;2943;48.012;10.968;2023-04-15T11:18:53;9.80;99.90
5834;DHT22;2943;48.012;10.968;2023-04-15T11:21:23;9.70;99.90
5834;DHT22;2943;48.012;10.968;2023-04-15T11:23:51;9.70;99.90
5834;DHT22;2943;48.012;10.968;2023-04-15T11:26:18;9.70;99.90
5834;DHT22;2943;48.012;10.968;2023-04-15T11:28:56;9.70;99.90
5834;DHT22;2943;48.012;10.968;2023-04-15T11:31:26;9.80;99.90
5834;DHT22;2943;48.012;10.968;2023-04-15T11:33:55;9.80;99.90
5834;DHT22;2943;48.012;10.968;2023-04-15T11:36:24;9.80;99.90
5834;DHT22;2943;48.012;10.968;2023-04-15T11:38:54;9.80;99.90
5834;DHT22;2943;48.012;10.968;2023-04-15T11:41:22;9.70;99.90
5834;DHT22;2943;48.012;10.968;2023-04-15T11:43:49;9.70;99.90
5834;DHT22;2943;48.012;10.968;2023-04-15T11:46:16;9.70;99.90
5834;DHT22;2943;48.012;10.968;2023-04-15T11:48:44;9.60;99.90
5834;DHT22;2943;48.012;10.968;2023-04-15T11:51:13;9.60;99.90
5834;DHT22;2943;48.012;10.968;2023-04-15T11:53:41;9.30;99.90
5834;DHT22;2943;48.012;10.968;2023-04-15T11:56:09;9.10;99.90
5834;DHT22;2943;48.012;10.968;2023-04-15T11:58:37;8.70;99.90
5834;DHT22;2943;48.012;10.968;2023-04-15T12:01:05;8.40;99.90
5834;DHT22;2943;48.012;10.968;2023-04-15T12:03:36;8.10;99.90
5834;DHT22;2943;48.012;10.968;2023-04-15T12:06:05;7.80;99.90
5834;DHT22;2943;48.012;10.968;2023-04-15T12:08:59;7.70;99.90
5834;DHT22;2943;48.012;10.968;2023-04-15T12:11:32;7.40;99.90
5834;DHT22;2943;48.012;10.968;2023-04-15T12:14:03;7.30;99.90
5834;DHT22;2943;48.012;10.968;2023-04-15T12:16:31;7.20;99.90
5834;DHT22;2943;48.012;10.968;2023-04-15T12:18:59;7.10;99.90
5834;DHT22;2943;48.012;10.968;2023-04-15T12:21:33;7.10;99.90
5834;DHT22;2943;48.012;10.968;2023-04-15T12:24:03;7.00;99.90
5834;DHT22;2943;48.012;10.968;2023-04-15T12:26:33;6.90;99.90
5834;DHT22;2943;48.012;10.968;2023-04-15T12:29:02;6.80;99.90
5834;DHT22;2943;48.012;10.968;2023-04-15T12:31:29;6.70;99.90
5834;DHT22;2943;48.012;10.968;2023-04-15T12:33:56;6.60;99.90
5834;DHT22;2943;48.012;10.968;2023-04-15T12:36:23;6.60;99.90
5834;DHT22;2943;48.012;10.968;2023-04-15T12:38:50;6.50;99.90
5834;DHT22;2943;48.012;10.968;2023-04-15T12:41:19;6.50;99.90
5834;DHT22;2943;48.012;10.968;2023-04-15T12:43:46;6.40;99.90
5834;DHT22;2943;48.012;10.968;2023-04-15T12:46:13;6.50;99.90
5834;DHT22;2943;48.012;10.968;2023-04-15T12:48:41;6.60;99.90
5834;DHT22;2943;48.012;10.968;2023-04-15T12:51:08;6.70;99.90
5834;DHT22;2943;48.012;10.968;2023-04-15T12:53:34;6.80;99.90
5834;DHT22;2943;48.012;10.968;2023-04-15T12:56:01;6.90;99.90
5834;DHT22;2943;48.012;10.968;2023-04-15T12:58:29;7.00;99.90
5834;DHT22;2943;48.012;10.968;2023-04-15T13:01:05;7.10;99.90
5834;DHT22;2943;48.012;10.968;2023-04-15T13:03:32;7.20;99.90
5834;DHT22;2943;48.012;10.968;2023-04-15T13:05:59;7.30;99.90
5834;DHT22;2943;48.012;10.968;2023-04-15T13:08:29;7.40;99.90
5834;DHT22;2943;48.012;10.968;2023-04-15T13:10:56;7.50;99.90
5834;DHT22;2943;48.012;10.968;2023-04-15T13:13:22;7.50;99.90
5834;DHT22;2943;48.012;10.968;2023-04-15T13:15:51;7.70;99.90
5834;DHT22;2943;48.012;10.968;2023-04-15T13:18:18;7.70;99.90
5834;DHT22;2943;48.012;10.968;2023-04-15T13:20:45;7.80;99.90
5834;DHT22;2943;48.012;10.968;2023-04-15T13:23:14;7.80;99.90
5834;DHT22;2943;48.012;10.968;2023-04-15T13:25:41;7.90;99.90
5834;DHT22;2943;48.012;10.968;2023-04-15T13:28:10;7.90;99.90
5834;DHT22;2943;48.012;10.968;2023-04-15T13:30:37;8.00;99.90
5834;DHT22;2943;48.012;10.968;2023-04-15T13:33:06;8.00;99.90
5834;DHT22;2943;48.012;10.968;2023-04-15T13:35:32;8.00;99.90
5834;DHT22;2943;48.012;10.968;2023-04-15T13:38:00;8.10;99.90
5834;DHT22;2943;48.012;10.968;2023-04-15T13:40:26;8.20;99.90
5834;DHT22;2943;48.012;10.968;2023-04-15T13:42:54;8.40;99.90
5834;DHT22;2943;48.012;10.968;2023-04-15T13:45:33;8.50;99.90
5834;DHT22;2943;48.012;10.968;2023-04-15T13:48:00;8.50;99.90
5834;DHT22;2943;48.012;10.968;2023-04-15T13:50:29;8.60;99.90
5834;DHT22;2943;48.012;10.968;2023-04-15T13:52:56;8.60;99.90
5834;DHT22;2943;48.012;10.968;2023-04-15T13:55:23;8.60;99.90
5834;DHT22;2943;48.012;10.968;2023-04-15T13:57:50;8.60;99.90
5834;DHT22;2943;48.012;10.968;2023-04-15T14:00:17;8.60;99.90
5834;DHT22;2943;48.012;10.968;2023-04-15T14:02:44;8.50;99.90
5834;DHT22;2943;48.012;10.968;2023-04-15T14:05:11;8.50;99.90
5834;DHT22;2943;48.012;10.968;2023-04-15T14:07:39;8.50;99.90
5834;DHT22;2943;48.012;10.968;2023-04-15T14:10:07;8.50;99.90
5834;DHT22;2943;48.012;10.968;2023-04-15T14:12:34;8.50;99.90
5834;DHT22;2943;48.012;10.968;2023-04-15T14:15:00;8.40;99.90
5834;DHT22;2943;48.012;10.968;2023-04-15T14:17:27;8.30;99.90
5834;DHT22;2943;48.012;10.968;2023-04-15T14:19:54;8.30;99.90
5834;DHT22;2943;48.012;10.968;2023-04-15T14:22:21;8.30;99.90
5834;DHT22;2943;48.012;10.968;2023-04-15T14:24:49;8.20;99.90
5834;DHT22;2943;48.012;10.968;2023-04-15T14:27:18;8.20;99.90
5834;DHT22;2943;48.012;10.968;2023-04-15T14:29:44;8.30;99.90
5834;DHT22;2943;48.012;10.968;2023-04-15T14:32:13;8.30;99.90
5834;DHT22;2943;48.012;10.968;2023-04-15T14:34:40;8.30;99.90
5834;DHT22;2943;48.012;10.968;2023-04-15T14:37:07;8.30;99.90
5834;DHT22;2943;48.012;10.968;2023-04-15T14:39:33;8.40;99.90
5834;DHT22;2943;48.012;10.968;2023-04-15T14:42:02;8.40;99.90
5834;DHT22;2943;48.012;10.968;2023-04-15T14:44:28;8.50;99.90
5834;DHT22;2943;48.012;10.968;2023-04-15T14:46:55;8.50;99.90
5834;DHT22;2943;48.012;10.968;2023-04-15T14:49:22;8.60;99.90
5834;DHT22;2943;48.012;10.968;2023-04-15T14:51:49;8.60;99.90
5834;DHT22;2943;48.012;10.968;2023-04-15T14:54:16;8.70;99.90
5834;DHT22;2943;48.012;10.968;2023-04-15T14:56:43;8.80;99.90
5834;DHT22;2943;48.012;10.968;2023-04-15T14:59:11;8.80;99.90
5834;DHT22;2943;48.012;10.968;2023-04-15T15:01:38;8.80;99.90
5834;DHT22;2943;48.012;10.968;2023-04-15T15:04:04;8.80;99.90
5834;DHT22;2943;48.012;10.968;2023-04-15T15:08:58;8.80;99.90
5834;DHT22;2943;48.012;10.968;2023-04-15T15:11:26;8.90;99.90
5834;DHT22;2943;48.012;10.968;2023-04-15T15:13:54;8.90;99.90
5834;DHT22;2943;48.012;10.968;2023-04-15T15:16:22;8.90;99.90
5834;DHT22;2943;48.012;10.968;2023-04-15T15:18:50;8.80;99.90
5834;DHT22;2943;48.012;10.968;2023-04-15T15:21:24;8.90;99.90
5834;DHT22;2943;48.012;10.968;2023-04-15T15:23:51;8.80;99.90
5834;DHT22;2943;48.012;10.968;2023-04-15T15:26:18;8.70;99.90
5834;DHT22;2943;48.012;10.968;2023-04-15T15:28:45;8.60;99.90
5834;DHT22;2943;48.012;10.968;2023-04-15T15:31:12;8.50;99.90
5834;DHT22;2943;48.012;10.968;2023-04-15T15:33:40;8.50;99.90
5834;DHT22;2943;48.012;10.968;2023-04-15T15:36:07;8.40;99.90
5834;DHT22;2943;48.012;10.968;2023-04-15T15:38:35;8.30;99.90
5834;DHT22;2943;48.012;10.968;2023-04-15T15:41:02;8.10;99.90
5834;DHT22;2943;48.012;10.968;2023-04-15T15:43:28;7.80;99.90
5834;DHT22;2943;48.012;10.968;2023-04-15T15:45:55;7.70;99.90
5834;DHT22;2943;48.012;10.968;2023-04-15T15:48:22;7.50;99.90
5834;DHT22;2943;48.012;10.968;2023-04-15T15:50:51;7.30;99.90
5834;DHT22;2943;48.012;10.968;2023-04-15T15:53:17;7.20;99.90
5834;DHT22;2943;48.012;10.968;2023-04-15T15:55:45;7.00;99.90
5834;DHT22;2943;48.012;10.968;2023-04-15T15:58:13;6.90;99.90
5834;DHT22;2943;48.012;10.968;2023-04-15T16:00:40;6.80;99.90
5834;DHT22;2943;48.012;10.968;2023-04-15T16:03:07;6.70;99.90
5834;DHT22;2943;48.012;10.968;2023-04-15T16:05:36;6.50;99.90
5834;DHT22;2943;48.012;10.968;2023-04-15T16:08:13;6.40;99.90